First Mesa, Arizona
Current Conditions -  °F | °C
As of 3:56 PM on Monday 24 Nov 2014 (Local Time) from KINW Reporting Station
Clear Clear  
Wind Chill: 50°   Ceiling: Unl
Heat Index: 50°   Visibility: 10mi
Dew Point:   Wind: 24mph
Humidity: 13%   Direction: 340°NNW
Pressure: 30.25"   Gusts: 35mph
Location:  35.9347°N, 110.453°W
Report Text: KINW 242256Z AUTO 34021G30KT 10SM CLR 10/M18 A3025 RMK AO2 PK WND 33033/2232 SLP255 T01001178
Loading
Personal Weather Stations






























Interactive Weather Map New forecast layout! Learn more

10-Day Weather Forecast

Advertisements
Track Severe Weather on mobile